Time;durP1;ratioP1;P1;durP2;ratioP2;P2;SDS_P1;SDS_P2;PMS_P1;PMS_P2;Temp;Humidity;BMP_temperature;BMP_pressure;BME280_temperature;BME280_humidity;BME280_pressure;Samples;Min_cycle;Max_cycle;Signal;HPM_P1;HPM_P2
2022/06/15 00:00:04;;;;;;;0.28;0.28;;;;;;;21.37;100.00;101154.19;2616526;54;20161;-64
2022/06/15 00:02:34;;;;;;;0.00;0.00;;;;;;;21.47;100.00;101147.84;2616398;54;20145;-63
2022/06/15 00:05:05;;;;;;;1.35;0.43;;;;;;;21.53;100.00;101146.41;2616475;47;20146;-63
2022/06/15 00:07:35;;;;;;;0.00;0.00;;;;;;;21.68;100.00;101142.25;2616237;54;20785;-63
2022/06/15 00:10:10;;;;;;;0.30;0.30;;;;;;;22.19;100.00;101141.47;2616413;54;20146;-63
2022/06/15 00:12:40;;;;;;;0.03;0.03;;;;;;;21.98;100.00;101143.69;2616444;54;20141;-64
2022/06/15 00:15:13;;;;;;;0.10;0.10;;;;;;;21.30;100.00;101134.66;2616461;54;20146;-64
2022/06/15 00:17:43;;;;;;;0.20;0.13;;;;;;;21.14;100.00;101140.63;2616409;54;20144;-64
2022/06/15 00:20:14;;;;;;;0.00;0.00;;;;;;;21.68;100.00;101144.06;2616884;39;20581;-64
2022/06/15 00:22:44;;;;;;;0.00;0.00;;;;;;;21.83;100.00;101131.94;2616583;54;20154;-64
2022/06/15 00:25:17;;;;;;;0.52;0.47;;;;;;;22.64;100.00;101143.84;2616718;54;20145;-63
2022/06/15 00:27:47;;;;;;;0.00;0.00;;;;;;;22.84;100.00;101134.69;2617247;54;20146;-64
2022/06/15 00:30:19;;;;;;;0.00;0.00;;;;;;;22.69;100.00;101141.59;2616490;54;20150;-63
2022/06/15 00:32:49;;;;;;;0.40;0.30;;;;;;;22.62;100.00;101147.66;2616446;54;20150;-63
2022/06/15 00:35:19;;;;;;;0.00;0.00;;;;;;;23.05;100.00;101151.97;2616321;54;20153;-63
2022/06/15 00:37:50;;;;;;;0.00;0.00;;;;;;;22.88;100.00;101156.38;2616125;54;20138;-63
2022/06/15 00:40:23;;;;;;;0.63;0.30;;;;;;;21.85;100.00;101157.25;2616286;54;20152;-63
2022/06/15 00:42:53;;;;;;;0.00;0.00;;;;;;;21.75;100.00;101166.22;2616327;54;20141;-64
2022/06/15 00:45:23;;;;;;;0.17;0.17;;;;;;;21.23;100.00;101159.97;2616522;54;20137;-63
2022/06/15 00:47:54;;;;;;;0.32;0.20;;;;;;;21.31;100.00;101165.34;2617047;54;20145;-63
2022/06/15 00:50:27;;;;;;;0.82;0.82;;;;;;;21.43;100.00;101177.34;2617272;54;20210;-63
2022/06/15 00:53:02;;;;;;;0.00;0.00;;;;;;;21.21;100.00;101169.88;2617206;54;20146;-63
2022/06/15 00:55:37;;;;;;;0.65;0.55;;;;;;;21.54;100.00;101169.22;2617074;54;20141;-64
2022/06/15 00:58:13;;;;;;;0.70;0.70;;;;;;;21.80;100.00;101174.53;2617639;39;20544;-64
2022/06/15 01:00:43;;;;;;;0.50;0.35;;;;;;;21.78;100.00;101165.94;2617011;54;20177;-64
2022/06/15 01:03:15;;;;;;;4.75;1.65;;;;;;;21.96;100.00;101174.69;2617298;54;20153;-63
2022/06/15 01:05:55;;;;;;;0.10;0.10;;;;;;;22.35;100.00;101172.47;2617186;39;20400;-64
2022/06/15 01:08:35;;;;;;;0.20;0.20;;;;;;;22.42;100.00;101172.69;2617160;54;20141;-63
2022/06/15 01:11:46;;;;;;;1.75;1.27;;;;;;;21.91;100.00;101180.44;2617147;54;20152;-63
2022/06/15 01:14:42;;;;;;;0.88;0.43;;;;;;;21.53;100.00;101172.81;2617200;54;20176;-63
2022/06/15 01:17:25;;;;;;;0.98;0.98;;;;;;;21.02;100.00;101184.00;2617132;54;20142;-63
2022/06/15 01:20:21;;;;;;;0.28;0.28;;;;;;;20.56;100.00;101195.44;2617282;54;20153;-63
2022/06/15 01:23:31;;;;;;;1.50;1.40;;;;;;;20.48;100.00;101193.53;2617397;54;20152;-64
2022/06/15 01:26:19;;;;;;;1.50;0.60;;;;;;;20.53;100.00;101185.19;2617038;54;20161;-63
2022/06/15 01:28:56;;;;;;;1.13;1.13;;;;;;;20.78;100.00;101192.41;2616853;54;20662;-64
2022/06/15 01:31:35;;;;;;;1.08;0.43;;;;;;;21.03;100.00;101189.09;2617098;54;20134;-63
2022/06/15 01:34:15;;;;;;;0.90;0.10;;;;;;;21.45;100.00;101192.06;2617059;54;20153;-63
2022/06/15 01:36:51;;;;;;;4.40;1.88;;;;;;;21.55;100.00;101191.16;2617518;39;20561;-63
2022/06/15 01:39:28;;;;;;;10.57;2.70;;;;;;;21.08;100.00;101180.75;2618777;54;20145;-64
2022/06/15 01:42:06;;;;;;;0.15;0.15;;;;;;;20.74;100.00;101191.06;2617582;54;20146;-63
2022/06/15 01:44:40;;;;;;;1.15;0.50;;;;;;;20.91;100.00;101192.91;2616699;54;20169;-63
2022/06/15 01:47:17;;;;;;;0.00;0.00;;;;;;;21.13;100.00;101194.38;2617037;54;20145;-62
2022/06/15 01:49:52;;;;;;;0.00;0.00;;;;;;;21.52;100.00;101197.56;2617864;39;20553;-63
2022/06/15 01:52:27;;;;;;;0.00;0.00;;;;;;;21.89;100.00;101195.59;2617207;54;20142;-63
2022/06/15 01:55:03;;;;;;;3.67;0.95;;;;;;;21.91;100.00;101204.22;2616612;54;20205;-63
2022/06/15 01:57:35;;;;;;;0.00;0.00;;;;;;;21.92;100.00;101207.69;2617040;54;20240;-63
2022/06/15 02:00:11;;;;;;;0.30;0.30;;;;;;;22.54;100.00;101206.66;2617281;54;20157;-63
2022/06/15 02:02:53;;;;;;;0.43;0.43;;;;;;;22.48;100.00;101204.59;2616660;54;20145;-63
2022/06/15 02:05:32;;;;;;;0.08;0.08;;;;;;;22.36;100.00;101213.78;2617263;54;20197;-63
2022/06/15 02:08:11;;;;;;;0.00;0.00;;;;;;;22.20;100.00;101222.44;2617096;54;20224;-63
2022/06/15 02:10:51;;;;;;;0.00;0.00;;;;;;;22.57;100.00;101218.72;2617702;39;20561;-63
2022/06/15 02:13:26;;;;;;;0.00;0.00;;;;;;;22.77;100.00;101218.34;2617249;54;20134;-64
2022/06/15 02:16:03;;;;;;;0.00;0.00;;;;;;;22.81;100.00;101222.34;2617351;54;20163;-63
2022/06/15 02:18:38;;;;;;;0.17;0.17;;;;;;;22.75;100.00;101222.13;2617110;46;20149;-63
2022/06/15 02:21:13;;;;;;;0.00;0.00;;;;;;;22.62;100.00;101230.50;2617332;54;20142;-63
2022/06/15 02:23:45;;;;;;;0.17;0.17;;;;;;;23.00;100.00;101229.19;2617409;54;20153;-63
2022/06/15 02:26:17;;;;;;;0.75;0.75;;;;;;;23.36;100.00;101221.03;2617328;54;20153;-63
2022/06/15 02:28:51;;;;;;;0.95;0.88;;;;;;;22.93;100.00;101224.72;2617340;54;20152;-63
2022/06/15 02:31:22;;;;;;;0.00;0.00;;;;;;;23.02;100.00;101215.81;2617125;54;20147;-64
2022/06/15 02:33:57;;;;;;;0.10;0.10;;;;;;;23.17;100.00;101228.28;2617247;54;20137;-63
2022/06/15 02:36:28;;;;;;;0.00;0.00;;;;;;;23.35;100.00;101222.03;2617306;54;20527;-63
2022/06/15 02:38:59;;;;;;;0.00;0.00;;;;;;;23.83;100.00;101221.31;2617298;54;20148;-63
2022/06/15 02:41:29;;;;;;;0.40;0.40;;;;;;;24.08;100.00;101233.53;2616920;54;20693;-64
2022/06/15 02:44:03;;;;;;;0.00;0.00;;;;;;;23.99;100.00;101227.41;2617125;54;20153;-63
2022/06/15 02:46:37;;;;;;;0.00;0.00;;;;;;;23.77;100.00;101230.75;2617268;47;20148;-63
2022/06/15 02:49:10;;;;;;;0.00;0.00;;;;;;;24.06;100.00;101227.59;2617922;54;20657;-64
2022/06/15 02:51:45;;;;;;;0.65;0.65;;;;;;;24.24;100.00;101237.06;2618147;54;20164;-63
2022/06/15 02:54:22;;;;;;;0.00;0.00;;;;;;;24.28;100.00;101234.06;2617316;54;20680;-63
2022/06/15 02:56:52;;;;;;;0.00;0.00;;;;;;;24.62;100.00;101232.84;2617212;54;20157;-63
2022/06/15 02:59:23;;;;;;;0.10;0.10;;;;;;;24.90;100.00;101233.28;2617075;54;20149;-63
2022/06/15 03:01:53;;;;;;;0.00;0.00;;;;;;;24.83;100.00;101232.28;2617067;54;20176;-64
2022/06/15 03:04:26;;;;;;;0.00;0.00;;;;;;;25.08;100.00;101238.31;2617032;54;20671;-64
2022/06/15 03:06:57;;;;;;;0.00;0.00;;;;;;;24.99;100.00;101239.38;2617071;47;20803;-63
2022/06/15 03:09:27;;;;;;;0.00;0.00;;;;;;;24.92;100.00;101233.91;2617773;54;20142;-64
2022/06/15 03:11:57;;;;;;;0.00;0.00;;;;;;;24.90;100.00;101237.75;2617186;54;20149;-64
2022/06/15 03:14:27;;;;;;;0.00;0.00;;;;;;;24.69;100.00;101232.97;2617523;54;20145;-63
2022/06/15 03:16:58;;;;;;;0.00;0.00;;;;;;;24.67;100.00;101238.44;2618294;54;20149;-64
2022/06/15 03:19:31;;;;;;;0.00;0.00;;;;;;;24.30;100.00;101246.16;2615496;39;20578;-64
2022/06/15 03:22:01;;;;;;;0.00;0.00;;;;;;;24.46;100.00;101253.28;2615568;54;20151;-63
2022/06/15 03:24:31;;;;;;;0.00;0.00;;;;;;;24.58;100.00;101247.44;2616098;54;20153;-63
2022/06/15 03:27:02;;;;;;;0.00;0.00;;;;;;;24.57;100.00;101248.44;2615839;39;20524;-63
2022/06/15 03:29:32;;;;;;;0.00;0.00;;;;;;;24.18;100.00;101252.81;2616820;54;20149;-63
2022/06/15 03:32:02;;;;;;;0.00;0.00;;;;;;;24.19;100.00;101254.47;2616356;54;20150;-64
2022/06/15 03:34:35;;;;;;;0.00;0.00;;;;;;;23.84;100.00;101249.44;2617098;54;20172;-64
2022/06/15 03:37:06;;;;;;;0.00;0.00;;;;;;;24.04;100.00;101256.91;2615788;47;20157;-63
2022/06/15 03:39:37;;;;;;;1.10;0.57;;;;;;;24.02;100.00;101266.03;2615709;54;20180;-63
2022/06/15 03:42:13;;;;;;;0.00;0.00;;;;;;;23.89;100.00;101266.53;2616211;39;20565;-63
2022/06/15 03:44:44;;;;;;;0.10;0.10;;;;;;;23.47;100.00;101266.59;2616111;47;20151;-64
2022/06/15 03:47:17;;;;;;;0.10;0.10;;;;;;;22.92;100.00;101278.63;2616421;48;20148;-63
2022/06/15 03:49:51;;;;;;;0.00;0.00;;;;;;;22.54;100.00;101280.72;2615938;54;20190;-63
2022/06/15 03:52:23;;;;;;;0.00;0.00;;;;;;;22.25;100.00;101286.28;2616877;54;20148;-63
2022/06/15 03:54:54;;;;;;;0.28;0.28;;;;;;;22.37;100.00;101273.63;2616620;47;20153;-63
2022/06/15 03:57:25;;;;;;;0.00;0.00;;;;;;;23.50;100.00;101278.72;2616928;54;20142;-64
2022/06/15 03:59:55;;;;;;;0.00;0.00;;;;;;;23.39;100.00;101279.81;2616929;54;20149;-63
2022/06/15 04:02:25;;;;;;;0.00;0.00;;;;;;;23.72;100.00;101272.78;2616677;54;20153;-64
2022/06/15 04:04:58;;;;;;;0.00;0.00;;;;;;;24.22;100.00;101285.97;2616684;54;20230;-64
2022/06/15 04:10:13;;;;;;;0.00;0.00;;;;;;;24.82;100.00;101301.47;2616570;54;20152;-64
2022/06/15 04:12:45;;;;;;;2.72;0.95;;;;;;;24.61;100.00;101297.53;2616397;54;20152;-63
2022/06/15 04:15:16;;;;;;;0.00;0.00;;;;;;;24.47;100.00;101295.56;2616871;54;20288;-64
2022/06/15 04:17:47;;;;;;;0.00;0.00;;;;;;;24.63;100.00;101300.81;2616913;54;20188;-63
2022/06/15 04:20:40;;;;;;;0.22;0.22;;;;;;;24.36;100.00;101298.53;2615345;54;20704;-64
2022/06/15 04:23:12;;;;;;;0.00;0.00;;;;;;;24.94;100.00;101308.09;2617486;54;20141;-63
2022/06/15 04:25:44;;;;;;;0.00;0.00;;;;;;;25.10;100.00;101308.03;2617420;54;20142;-64
2022/06/15 04:28:17;;;;;;;0.00;0.00;;;;;;;25.22;100.00;101308.50;2617153;47;20145;-64
2022/06/15 04:30:48;;;;;;;0.00;0.00;;;;;;;24.79;100.00;101309.78;2616681;54;20149;-64
2022/06/15 04:33:19;;;;;;;0.20;0.20;;;;;;;24.90;100.00;101317.41;2617359;54;20158;-64
2022/06/15 04:35:52;;;;;;;0.00;0.00;;;;;;;24.88;100.00;101324.69;2617547;54;20141;-64
2022/06/15 04:38:22;;;;;;;0.35;0.35;;;;;;;24.85;100.00;101319.72;2617929;54;20142;-69
2022/06/15 04:40:52;;;;;;;0.00;0.00;;;;;;;24.80;100.00;101328.16;2617973;54;20147;-64
2022/06/15 04:43:22;;;;;;;0.30;0.20;;;;;;;24.90;100.00;101334.16;2617727;46;20153;-63
2022/06/15 04:45:53;;;;;;;0.00;0.00;;;;;;;24.97;100.00;101335.13;2617255;46;20168;-64
2022/06/15 04:48:23;;;;;;;0.75;0.63;;;;;;;24.67;100.00;101339.28;2617122;54;20149;-64
2022/06/15 04:50:56;;;;;;;6.43;3.83;;;;;;;24.27;100.00;101338.50;2616184;47;20149;-64
2022/06/15 04:53:26;;;;;;;0.57;0.50;;;;;;;24.09;100.00;101338.63;2616572;54;20142;-64
2022/06/15 04:55:57;;;;;;;0.43;0.43;;;;;;;23.91;100.00;101332.66;2617274;39;20549;-64
2022/06/15 04:58:27;;;;;;;4.95;1.13;;;;;;;23.43;100.00;101334.16;2617265;54;20713;-65
2022/06/15 05:00:57;;;;;;;0.93;0.90;;;;;;;23.28;100.00;101330.41;2617264;54;20670;-66
2022/06/15 05:03:28;;;;;;;1.02;1.02;;;;;;;23.70;100.00;101333.09;2616762;54;20157;-64
2022/06/15 05:06:01;;;;;;;1.02;0.95;;;;;;;23.52;100.00;101327.06;2616895;54;20153;-64
2022/06/15 05:08:31;;;;;;;1.92;1.52;;;;;;;23.25;100.00;101336.88;2617106;54;20146;-64
2022/06/15 05:11:02;;;;;;;0.73;0.63;;;;;;;22.61;100.00;101334.63;2616582;47;20760;-64
2022/06/15 05:13:32;;;;;;;0.87;0.63;;;;;;;23.30;100.00;101341.69;2617202;54;20681;-64
2022/06/15 05:16:03;;;;;;;0.43;0.43;;;;;;;23.41;100.00;101332.63;2617505;54;20141;-64
2022/06/15 05:18:34;;;;;;;0.00;0.00;;;;;;;23.88;100.00;101325.81;2617466;54;20150;-64
2022/06/15 05:21:07;;;;;;;0.20;0.20;;;;;;;24.34;100.00;101337.69;2617669;54;20148;-64
2022/06/15 05:23:37;;;;;;;0.28;0.25;;;;;;;24.30;100.00;101333.69;2617575;54;20141;-64
2022/06/15 05:26:07;;;;;;;0.77;0.70;;;;;;;23.78;100.00;101333.94;2618090;54;20201;-64
2022/06/15 05:28:38;;;;;;;0.00;0.00;;;;;;;24.16;100.00;101334.34;2617208;39;20586;-64
2022/06/15 05:31:12;;;;;;;0.15;0.15;;;;;;;24.34;100.00;101339.50;2616502;54;20678;-64
2022/06/15 05:33:43;;;;;;;1.35;1.25;;;;;;;23.61;100.00;101345.47;2617135;54;20149;-64
2022/06/15 05:36:18;;;;;;;1.60;1.50;;;;;;;23.27;100.00;101348.13;2616831;54;20142;-64
2022/06/15 05:38:49;;;;;;;0.45;0.45;;;;;;;23.36;100.00;101349.00;2616610;54;20152;-64
2022/06/15 05:41:19;;;;;;;0.43;0.30;;;;;;;23.53;100.00;101349.91;2616514;54;20666;-64
2022/06/15 05:43:49;;;;;;;0.73;0.73;;;;;;;23.89;100.00;101351.34;2616713;54;20149;-64
2022/06/15 05:46:26;;;;;;;0.70;0.70;;;;;;;24.20;100.00;101359.53;2616174;54;20156;-64
2022/06/15 05:48:57;;;;;;;1.38;0.95;;;;;;;23.57;100.00;101360.03;2616330;54;20184;-64
2022/06/15 05:51:31;;;;;;;0.70;0.70;;;;;;;23.41;100.00;101359.94;2616426;54;20146;-64
2022/06/15 05:54:01;;;;;;;0.90;0.63;;;;;;;23.35;100.00;101365.06;2616505;54;20146;-64
2022/06/15 05:56:33;;;;;;;0.55;0.55;;;;;;;23.38;100.00;101365.56;2616410;54;20150;-64
2022/06/15 05:59:03;;;;;;;0.43;0.43;;;;;;;24.05;100.00;101369.09;2616217;54;20145;-64
2022/06/15 06:01:36;;;;;;;0.15;0.15;;;;;;;24.11;100.00;101363.16;2616410;54;20146;-64
2022/06/15 06:04:08;;;;;;;1.88;0.77;;;;;;;23.49;100.00;101361.81;2616495;53;20149;-64
2022/06/15 06:06:41;;;;;;;0.55;0.55;;;;;;;23.33;100.00;101367.84;2616544;54;20217;-64
2022/06/15 06:09:12;;;;;;;0.00;0.00;;;;;;;23.97;100.00;101369.94;2616652;54;20142;-64
2022/06/15 06:11:43;;;;;;;0.00;0.00;;;;;;;24.30;100.00;101368.19;2616711;54;20142;-64
2022/06/15 06:14:13;;;;;;;0.00;0.00;;;;;;;24.76;100.00;101371.13;2617008;39;20678;-64
2022/06/15 06:16:43;;;;;;;0.57;0.57;;;;;;;24.13;100.00;101372.59;2616879;39;20542;-64
2022/06/15 06:19:13;;;;;;;0.22;0.22;;;;;;;24.61;100.00;101369.19;2617294;39;20749;-64
2022/06/15 06:21:47;;;;;;;0.90;0.63;;;;;;;24.17;100.00;101362.53;2616427;54;20142;-65
2022/06/15 06:24:17;;;;;;;0.10;0.10;;;;;;;24.53;100.00;101363.03;2615918;54;20141;-64
2022/06/15 06:26:48;;;;;;;0.00;0.00;;;;;;;25.29;100.00;101373.22;2615573;54;20141;-64
2022/06/15 06:29:19;;;;;;;0.50;0.50;;;;;;;25.45;100.00;101367.84;2615314;54;20142;-65
2022/06/15 06:31:49;;;;;;;0.00;0.00;;;;;;;25.67;100.00;101366.28;2615448;47;20141;-65
2022/06/15 06:34:20;;;;;;;3.70;2.67;;;;;;;25.81;100.00;101362.88;2615424;54;20149;-66
2022/06/15 06:36:53;;;;;;;0.25;0.25;;;;;;;25.76;100.00;101362.59;2615123;39;20563;-65
2022/06/15 06:39:27;;;;;;;0.73;0.65;;;;;;;25.63;100.00;101362.31;2615798;54;20148;-64
2022/06/15 06:41:59;;;;;;;0.00;0.00;;;;;;;26.20;100.00;101366.31;2615168;54;20693;-64
2022/06/15 06:44:29;;;;;;;0.00;0.00;;;;;;;26.27;100.00;101367.28;2617305;54;20249;-65
2022/06/15 06:47:00;;;;;;;0.00;0.00;;;;;;;26.29;100.00;101373.22;2617218;39;20621;-64
2022/06/15 06:49:30;;;;;;;0.00;0.00;;;;;;;26.23;100.00;101370.47;2616339;54;20184;-65
2022/06/15 06:52:03;;;;;;;0.00;0.00;;;;;;;26.54;100.00;101372.03;2616770;54;20145;-64
2022/06/15 06:54:34;;;;;;;0.00;0.00;;;;;;;26.64;100.00;101378.94;2616650;54;20148;-64
2022/06/15 06:57:04;;;;;;;0.00;0.00;;;;;;;26.64;100.00;101374.41;2616441;54;20148;-64
2022/06/15 06:59:34;;;;;;;0.28;0.28;;;;;;;26.42;100.00;101377.94;2616320;54;20156;-64
2022/06/15 07:02:05;;;;;;;0.65;0.65;;;;;;;26.40;100.00;101383.44;2616266;54;20689;-64
2022/06/15 07:43:45;;;;;;;0.00;0.00;;;;;;;26.46;100.00;101381.91;2610924;39;20585;-64
2022/06/15 07:46:16;;;;;;;0.00;0.00;;;;;;;26.38;100.00;101392.63;2616235;54;20173;-64
2022/06/15 07:51:33;;;;;;;0.45;0.45;;;;;;;26.24;100.00;101394.22;2616444;54;20142;-64
2022/06/15 07:54:05;;;;;;;0.70;0.60;;;;;;;26.40;100.00;101394.09;2616677;54;20134;-64
2022/06/15 07:56:35;;;;;;;0.22;0.22;;;;;;;26.53;100.00;101388.16;2616084;54;20141;-64
2022/06/15 07:59:08;;;;;;;0.05;0.05;;;;;;;26.19;100.00;101395.72;2616498;54;20141;-63
2022/06/15 08:01:39;;;;;;;0.13;0.13;;;;;;;26.34;100.00;101397.47;2616722;39;20554;-64
2022/06/15 08:04:10;;;;;;;0.68;0.68;;;;;;;25.97;100.00;101406.16;2616395;47;20692;-63
2022/06/15 08:06:42;;;;;;;0.00;0.00;;;;;;;26.50;100.00;101397.34;2616438;39;20276;-67
2022/06/15 08:09:13;;;;;;;0.73;0.73;;;;;;;26.74;100.00;101395.47;2616169;54;20148;-64
2022/06/15 08:12:11;;;;;;;0.00;0.00;;;;;;;26.33;100.00;101401.13;2615997;54;20142;-64
2022/06/15 08:14:42;;;;;;;0.15;0.15;;;;;;;25.97;100.00;101397.34;2616192;47;20233;-64
2022/06/15 08:17:17;;;;;;;0.00;0.00;;;;;;;26.11;100.00;101409.09;2616643;54;20680;-65
2022/06/15 08:19:52;;;;;;;0.00;0.00;;;;;;;26.37;100.00;101399.78;2616307;54;20142;-64
2022/06/15 08:22:22;;;;;;;0.68;0.30;;;;;;;26.44;100.00;101394.59;2616293;54;20140;-64
2022/06/15 08:24:53;;;;;;;2.08;0.38;;;;;;;25.92;100.00;101399.69;2616110;54;20225;-65
2022/06/15 08:27:25;;;;;;;0.60;0.60;;;;;;;25.86;100.00;101405.72;2616209;54;20156;-65
2022/06/15 08:29:58;;;;;;;0.00;0.00;;;;;;;26.20;100.00;101400.09;2616562;39;20592;-64
2022/06/15 08:32:28;;;;;;;0.00;0.00;;;;;;;26.43;100.00;101404.41;2616016;54;20924;-64
2022/06/15 08:34:58;;;;;;;0.00;0.00;;;;;;;26.51;100.00;101403.50;2616340;39;20449;-64
2022/06/15 08:37:29;;;;;;;0.00;0.00;;;;;;;26.58;100.00;101411.59;2616078;47;20150;-65
2022/06/15 08:39:59;;;;;;;0.00;0.00;;;;;;;26.64;100.00;101410.88;2616108;54;20685;-65
2022/06/15 08:42:40;;;;;;;0.63;0.63;;;;;;;26.62;100.00;101411.06;2615885;54;20203;-63
2022/06/15 08:45:21;;;;;;;0.00;0.00;;;;;;;26.82;100.00;101414.03;2615792;54;20157;-63
2022/06/15 08:48:07;;;;;;;0.20;0.13;;;;;;;26.54;100.00;101414.63;2616150;54;20164;-64
2022/06/15 08:50:40;;;;;;;0.10;0.10;;;;;;;26.39;100.00;101411.09;2616018;54;20157;-64
2022/06/15 08:53:17;;;;;;;0.63;0.63;;;;;;;26.57;100.00;101415.25;2615896;54;20142;-63
2022/06/15 08:55:50;;;;;;;0.75;0.43;;;;;;;26.64;100.00;101416.22;2616177;54;20149;-64
2022/06/15 08:58:27;;;;;;;1.23;0.70;;;;;;;26.34;100.00;101416.09;2616188;54;20164;-64
2022/06/15 09:01:09;;;;;;;0.10;0.10;;;;;;;26.34;100.00;101421.44;2615918;54;20187;-65
2022/06/15 09:03:45;;;;;;;0.13;0.10;;;;;;;26.43;100.00;101414.22;2615918;46;20222;-64
2022/06/15 09:06:30;;;;;;;0.65;0.25;;;;;;;26.11;100.00;101417.06;2616150;54;20172;-65
2022/06/15 09:09:14;;;;;;;0.32;0.32;;;;;;;26.14;100.00;101420.19;2616940;54;20157;-66
2022/06/15 09:12:49;;;;;;;0.13;0.13;;;;;;;26.39;100.00;101410.25;2616736;54;20146;-63
2022/06/15 09:14:59;;;;;;;0.03;0.03;;;;;;;26.60;100.00;101409.59;2616683;47;20142;-65
2022/06/15 09:17:33;;;;;;;0.00;0.00;;;;;;;26.27;100.00;101409.84;2617011;54;20153;-64
2022/06/15 09:20:08;;;;;;;0.00;0.00;;;;;;;26.59;100.00;101414.09;2616777;54;20168;-65
2022/06/15 09:22:46;;;;;;;0.50;0.50;;;;;;;26.60;100.00;101425.56;2616007;54;20187;-64
2022/06/15 09:25:19;;;;;;;0.40;0.40;;;;;;;26.77;100.00;101416.41;2616177;54;20153;-65
2022/06/15 09:27:54;;;;;;;0.57;0.30;;;;;;;26.32;100.00;101418.09;2616267;47;20153;-64
2022/06/15 09:30:29;;;;;;;0.35;0.35;;;;;;;26.53;100.00;101415.63;2616372;54;20164;-64
2022/06/15 09:33:07;;;;;;;0.10;0.10;;;;;;;26.58;100.00;101420.41;2615190;54;20148;-64
2022/06/15 09:35:41;;;;;;;0.85;0.70;;;;;;;26.36;100.00;101427.38;2616648;39;20557;-64
2022/06/15 09:38:15;;;;;;;1.08;0.98;;;;;;;26.08;100.00;101427.03;2616612;54;20156;-64
2022/06/15 09:40:55;;;;;;;0.10;0.10;;;;;;;26.54;100.00;101422.59;2616402;54;20142;-65
2022/06/15 09:43:35;;;;;;;0.10;0.10;;;;;;;26.68;100.00;101417.50;2616504;54;20218;-65
2022/06/15 09:46:13;;;;;;;0.10;0.10;;;;;;;26.69;100.00;101419.16;2617312;31;20680;-65
2022/06/15 09:48:59;;;;;;;0.20;0.20;;;;;;;26.70;100.00;101426.13;2616562;54;20141;-64
2022/06/15 09:51:36;;;;;;;1.40;0.98;;;;;;;26.93;100.00;101416.28;2616634;54;20142;-65
2022/06/15 09:54:17;;;;;;;0.70;0.70;;;;;;;26.66;100.00;101422.19;2616703;46;20189;-64
2022/06/15 09:56:47;;;;;;;0.20;0.20;;;;;;;26.58;100.00;101417.75;2616594;54;20149;-65
2022/06/15 09:59:20;;;;;;;0.25;0.25;;;;;;;26.43;100.00;101420.38;2616587;46;20138;-65
2022/06/15 10:01:51;;;;;;;0.03;0.03;;;;;;;26.71;100.00;101425.13;2616486;54;20196;-65
2022/06/15 10:04:28;;;;;;;0.00;0.00;;;;;;;26.73;100.00;101421.28;2616552;54;20229;-64
2022/06/15 10:07:19;;;;;;;0.47;0.47;;;;;;;26.65;100.00;101413.34;2616431;54;20165;-64
2022/06/15 10:09:54;;;;;;;0.00;0.00;;;;;;;26.66;100.00;101416.84;2616669;54;20221;-64
2022/06/15 10:12:59;;;;;;;0.20;0.20;;;;;;;26.81;100.00;101402.56;2615353;54;20161;-64
2022/06/15 10:15:51;;;;;;;0.32;0.32;;;;;;;26.96;100.00;101414.09;2615762;54;20245;-64
2022/06/15 10:18:27;;;;;;;0.43;0.43;;;;;;;26.63;100.00;101410.06;2615372;54;20154;-65
2022/06/15 10:21:11;;;;;;;1.02;1.00;;;;;;;26.61;100.00;101406.72;2615659;54;20176;-65
2022/06/15 10:23:52;;;;;;;0.70;0.70;;;;;;;26.58;100.00;101416.91;2616246;54;20153;-65
2022/06/15 10:26:32;;;;;;;0.45;0.28;;;;;;;26.87;100.00;101423.19;2616076;54;20158;-65
2022/06/15 10:29:23;;;;;;;0.50;0.50;;;;;;;26.55;100.00;101423.44;2615828;54;20240;-65
2022/06/15 10:32:05;;;;;;;0.47;0.40;;;;;;;26.69;100.00;101421.81;2616053;47;20678;-65
2022/06/15 10:34:38;;;;;;;0.52;0.50;;;;;;;27.12;100.00;101405.13;2615951;54;20158;-64
2022/06/15 10:37:21;;;;;;;0.35;0.35;;;;;;;26.97;99.90;101418.41;2616071;54;20665;-64
2022/06/15 10:39:54;;;;;;;3.03;0.52;;;;;;;26.53;100.00;101410.28;2615979;54;20154;-63
2022/06/15 10:42:28;;;;;;;6.45;4.45;;;;;;;26.58;100.00;101414.25;2615606;54;20231;-65
2022/06/15 10:45:02;;;;;;;3.88;0.35;;;;;;;26.72;100.00;101414.28;2615924;54;20153;-64
2022/06/15 10:47:42;;;;;;;0.52;0.35;;;;;;;27.22;100.00;101408.34;2615897;54;20724;-64
2022/06/15 10:50:22;;;;;;;0.28;0.28;;;;;;;27.12;100.00;101409.63;2615938;46;20172;-64
2022/06/15 10:53:00;;;;;;;0.55;0.55;;;;;;;26.70;100.00;101410.16;2615890;54;20137;-64
2022/06/15 11:04:18;;;;;;;0.70;0.40;;;;;;;27.25;100.00;101410.63;2615771;54;20162;-64
2022/06/15 11:06:53;;;;;;;9.30;0.80;;;;;;;27.08;100.00;101405.69;2615985;54;20159;-64
2022/06/15 11:09:30;;;;;;;0.95;0.95;;;;;;;26.94;100.00;101412.63;2614840;54;20159;-64
2022/06/15 11:12:03;;;;;;;5.97;0.73;;;;;;;26.97;100.00;101412.25;2615835;54;20157;-64
2022/06/15 11:14:37;;;;;;;0.65;0.65;;;;;;;27.10;100.00;101412.47;2614650;54;20153;-63
2022/06/15 11:20:21;;;;;;;0.57;0.38;;;;;;;27.22;100.00;101395.00;2615897;54;20196;-63
2022/06/15 11:22:55;;;;;;;1.83;1.65;;;;;;;27.30;100.00;101415.41;2615499;39;20388;-64
2022/06/15 11:25:40;;;;;;;0.10;0.10;;;;;;;27.12;100.00;101407.81;2615536;54;20146;-64
2022/06/15 11:28:18;;;;;;;0.00;0.00;;;;;;;27.33;100.00;101409.72;2615932;54;20150;-64
2022/06/15 11:31:01;;;;;;;0.88;0.88;;;;;;;27.09;100.00;101409.97;2614718;54;20727;-65
2022/06/15 11:33:40;;;;;;;0.55;0.55;;;;;;;27.25;100.00;101421.28;2616323;39;20553;-64
2022/06/15 11:36:22;;;;;;;0.45;0.45;;;;;;;27.17;100.00;101413.38;2616454;39;20543;-65
2022/06/15 11:38:59;;;;;;;0.60;0.60;;;;;;;27.36;100.00;101412.03;2616021;46;20177;-64
2022/06/15 11:41:39;;;;;;;0.43;0.43;;;;;;;27.02;100.00;101412.56;2615904;54;20153;-65
2022/06/15 11:44:16;;;;;;;0.30;0.30;;;;;;;26.94;100.00;101413.47;2616023;54;20172;-64
2022/06/15 11:46:58;;;;;;;22.95;1.30;;;;;;;26.55;100.00;101423.44;2615491;54;20188;-64
2022/06/15 11:49:40;;;;;;;3.65;1.15;;;;;;;26.51;100.00;101430.97;2615376;54;20169;-64
2022/06/15 11:52:33;;;;;;;0.30;0.30;;;;;;;26.96;100.00;101416.75;2615979;54;20153;-64
2022/06/15 11:55:23;;;;;;;0.00;0.00;;;;;;;27.77;100.00;101423.88;2615794;54;20153;-64
2022/06/15 11:58:29;;;;;;;0.20;0.20;;;;;;;28.01;100.00;101414.69;2616181;39;20556;-64
2022/06/15 12:01:10;;;;;;;0.32;0.32;;;;;;;28.35;97.08;101420.25;2615792;54;20691;-64
2022/06/15 12:04:29;;;;;;;0.50;0.50;;;;;;;28.66;96.94;101411.06;2615592;54;20700;-63
2022/06/15 12:07:06;;;;;;;3.28;0.45;;;;;;;29.60;87.20;101412.34;2615719;54;20708;-63
2022/06/15 12:09:52;;;;;;;0.65;0.28;;;;;;;30.59;75.41;101410.75;2615700;54;20153;-64
2022/06/15 12:12:42;;;;;;;0.35;0.35;;;;;;;31.27;74.34;101409.47;2615657;54;20157;-64
2022/06/15 12:15:38;;;;;;;0.52;0.50;;;;;;;30.88;70.09;101401.47;2615428;54;20158;-64
2022/06/15 12:18:21;;;;;;;0.25;0.25;;;;;;;30.13;72.26;101416.84;2615626;54;20150;-65
2022/06/15 12:20:57;;;;;;;0.50;0.50;;;;;;;29.29;79.26;101410.94;2615740;54;20153;-64
2022/06/15 12:23:36;;;;;;;0.22;0.22;;;;;;;28.76;91.78;101416.94;2615841;54;20620;-65
2022/06/15 12:26:20;;;;;;;0.60;0.60;;;;;;;27.75;96.49;101420.56;2615450;54;20160;-65
2022/06/15 12:28:57;;;;;;;0.28;0.28;;;;;;;27.13;100.00;101409.44;2615984;39;20583;-65
2022/06/15 12:31:52;;;;;;;0.20;0.20;;;;;;;27.55;100.00;101408.00;2615427;54;20161;-65
2022/06/15 12:34:32;;;;;;;1.30;0.82;;;;;;;27.82;100.00;101409.97;2615372;54;20161;-65
2022/06/15 12:37:11;;;;;;;0.30;0.30;;;;;;;28.01;100.00;101404.03;2615815;39;20575;-65
2022/06/15 12:40:14;;;;;;;0.45;0.45;;;;;;;28.73;98.46;101390.59;2615576;54;20165;-64
2022/06/15 12:42:48;;;;;;;0.30;0.25;;;;;;;29.68;93.84;101390.75;2615958;54;20735;-65
2022/06/15 12:45:22;;;;;;;0.85;0.85;;;;;;;30.06;85.09;101391.09;2616229;54;20157;-64
2022/06/15 12:48:00;;;;;;;0.28;0.28;;;;;;;30.82;81.68;101379.00;2616294;54;20153;-64
2022/06/15 12:50:50;;;;;;;0.35;0.35;;;;;;;30.05;85.59;101392.94;2616237;54;20224;-64